Time;durP1;ratioP1;P1;durP2;ratioP2;P2;SDS_P1;SDS_P2;PMS_P1;PMS_P2;Temp;Humidity;BMP_temperature;BMP_pressure;BME280_temperature;BME280_humidity;BME280_pressure;Samples;Min_cycle;Max_cycle;Signal;HPM_P1;HPM_P2
2022/09/20 00:01:08;;;;;;;1.40;1.23;;;11.10;98.00;;;;;;5051737;28;20466;-66
2022/09/20 00:03:36;;;;;;;1.70;1.40;;;11.10;98.00;;;;;;5051628;28;20506;-67
2022/09/20 00:06:06;;;;;;;1.53;1.23;;;11.10;98.00;;;;;;5052200;28;20556;-66
2022/09/20 00:08:42;;;;;;;2.50;1.80;;;11.10;98.00;;;;;;5052127;28;20457;-66
2022/09/20 00:11:12;;;;;;;1.40;1.30;;;11.10;98.00;;;;;;5052268;28;20850;-66
2022/09/20 00:13:40;;;;;;;1.90;1.60;;;11.10;98.00;;;;;;5051914;28;20464;-66
2022/09/20 00:16:09;;;;;;;1.60;1.40;;;11.30;98.00;;;;;;5051806;28;20496;-67
2022/09/20 00:18:37;;;;;;;1.93;1.20;;;11.30;98.00;;;;;;5052037;28;20463;-66
2022/09/20 00:21:06;;;;;;;1.40;1.30;;;11.40;98.00;;;;;;5051908;28;21098;-66
2022/09/20 00:23:35;;;;;;;3.43;1.50;;;11.50;98.00;;;;;;5051987;28;20457;-66
2022/09/20 00:26:05;;;;;;;1.30;1.10;;;11.40;98.00;;;;;;5052011;28;20464;-67
2022/09/20 00:28:33;;;;;;;1.70;1.40;;;11.30;98.00;;;;;;5017898;28;20459;-67
2022/09/20 00:31:00;;;;;;;3.63;1.57;;;11.30;98.00;;;;;;5051964;28;21030;-67
2022/09/20 00:35:06;;;;;;;1.80;1.40;;;11.10;98.00;;;;;;5051699;28;20451;-67
2022/09/20 00:36:15;;;;;;;2.00;1.60;;;11.00;98.00;;;;;;5051562;28;20487;-68
2022/09/20 00:38:42;;;;;;;2.70;2.03;;;11.10;98.00;;;;;;5051409;28;20463;-67
2022/09/20 00:41:11;;;;;;;4.33;1.53;;;11.20;98.00;;;;;;5051780;28;20508;-67
2022/09/20 00:43:41;;;;;;;2.43;2.00;;;11.30;98.00;;;;;;5051490;28;20480;-67
2022/09/20 00:46:22;;;;;;;1.60;1.60;;;11.40;98.00;;;;;;5051552;28;20455;-67
2022/09/20 00:48:51;;;;;;;1.80;1.43;;;11.40;98.00;;;;;;5051613;28;20469;-67
2022/09/20 00:51:28;;;;;;;1.73;1.50;;;11.30;98.00;;;;;;5051540;28;20467;-67
2022/09/20 00:54:01;;;;;;;1.90;1.67;;;11.20;98.00;;;;;;5051540;28;20451;-67
2022/09/20 00:56:31;;;;;;;1.77;1.47;;;11.20;98.00;;;;;;5034719;28;20487;-67
2022/09/20 00:59:06;;;;;;;1.70;1.40;;;11.20;98.00;;;;;;5034182;28;20490;-68
2022/09/20 01:01:34;;;;;;;1.60;1.53;;;11.10;98.00;;;;;;5051744;28;20460;-67
2022/09/20 01:04:02;;;;;;;1.70;1.40;;;10.90;98.00;;;;;;5033900;28;20968;-68
2022/09/20 01:06:32;;;;;;;2.37;1.77;;;10.70;98.00;;;;;;5051554;28;20929;-67
2022/09/20 01:09:02;;;;;;;1.87;1.40;;;10.60;98.00;;;;;;5051370;28;20460;-67
2022/09/20 01:11:32;;;;;;;1.80;1.67;;;10.70;98.00;;;;;;5051444;28;20460;-67
2022/09/20 01:13:59;;;;;;;3.00;2.13;;;10.70;98.00;;;;;;5052183;28;20458;-66
2022/09/20 01:16:30;;;;;;;3.20;1.90;;;10.70;98.00;;;;;;5054943;28;20486;-67
2022/09/20 01:19:00;;;;;;;2.13;1.60;;;10.80;98.00;;;;;;5055114;28;20455;-67
2022/09/20 01:21:29;;;;;;;2.03;1.60;;;10.70;98.00;;;;;;5054844;28;20458;-66
2022/09/20 01:24:05;;;;;;;3.17;1.80;;;10.60;98.00;;;;;;5055164;28;20978;-66
2022/09/20 01:26:54;;;;;;;1.60;1.47;;;10.60;98.00;;;;;;5021049;28;21164;-66
2022/09/20 01:29:40;;;;;;;1.50;1.47;;;10.60;98.00;;;;;;5055411;28;20515;-66
2022/09/20 01:32:13;;;;;;;3.93;1.73;;;10.60;98.00;;;;;;5037174;28;20860;-66
2022/09/20 01:34:46;;;;;;;2.10;1.60;;;10.60;98.00;;;;;;5055047;28;20921;-66
2022/09/20 01:37:20;;;;;;;1.73;1.63;;;10.70;98.00;;;;;;5054679;28;20889;-66
2022/09/20 01:39:55;;;;;;;2.13;1.87;;;10.70;98.00;;;;;;5054195;28;20484;-67
2022/09/20 01:42:31;;;;;;;1.50;1.40;;;10.80;98.00;;;;;;5036820;28;20451;-66
2022/09/20 01:45:15;;;;;;;1.50;1.23;;;10.80;98.00;;;;;;5054575;28;20513;-66
2022/09/20 01:47:52;;;;;;;3.00;1.53;;;10.90;98.00;;;;;;5054468;28;20464;-66
2022/09/20 01:50:30;;;;;;;1.80;1.80;;;10.90;98.00;;;;;;5054650;28;20458;-66
2022/09/20 01:53:19;;;;;;;1.63;1.50;;;11.00;98.00;;;;;;5054353;28;20554;-66
2022/09/20 01:56:23;;;;;;;2.33;1.93;;;11.10;98.00;;;;;;5054279;28;20469;-66
2022/09/20 01:59:16;;;;;;;2.10;1.67;;;11.10;98.00;;;;;;5054348;28;20454;-66
2022/09/20 02:02:06;;;;;;;1.30;1.20;;;11.10;98.00;;;;;;5047261;28;20475;-66
2022/09/20 02:05:21;;;;;;;2.43;2.03;;;11.20;98.00;;;;;;5054252;28;20531;-66
2022/09/20 02:08:13;;;;;;;2.50;1.40;;;11.20;98.00;;;;;;5036280;28;21114;-66
2022/09/20 02:11:06;;;;;;;1.90;1.47;;;11.10;98.00;;;;;;5054203;28;20976;-66
2022/09/20 02:13:51;;;;;;;2.13;1.93;;;11.00;98.00;;;;;;5036965;28;20478;-66
2022/09/20 02:16:44;;;;;;;1.53;1.40;;;10.90;98.00;;;;;;5054073;28;20537;-66
2022/09/20 02:19:36;;;;;;;1.70;1.50;;;10.80;98.00;;;;;;5054116;28;20999;-66
2022/09/20 02:22:26;;;;;;;2.70;1.97;;;10.90;98.00;;;;;;5040897;28;20956;-66
2022/09/20 02:25:02;;;;;;;1.60;1.40;;;10.90;98.00;;;;;;5054066;28;20497;-66
2022/09/20 02:27:41;;;;;;;1.40;1.30;;;11.10;98.00;;;;;;5053580;28;20455;-66
2022/09/20 02:30:18;;;;;;;1.60;1.50;;;11.30;98.00;;;;;;5054210;28;20495;-66
2022/09/20 02:33:01;;;;;;;2.33;1.87;;;11.40;98.00;;;;;;5053599;28;20480;-66
2022/09/20 02:35:52;;;;;;;2.07;1.33;;;11.40;98.00;;;;;;5053498;28;20529;-66
2022/09/20 02:38:43;;;;;;;6.07;2.80;;;11.40;98.00;;;;;;5053582;28;20468;-66
2022/09/20 02:41:37;;;;;;;1.60;1.50;;;11.30;98.00;;;;;;5053445;28;20459;-66
2022/09/20 02:44:15;;;;;;;1.90;1.50;;;11.20;98.00;;;;;;5053670;28;20860;-66
2022/09/20 02:46:49;;;;;;;2.67;1.43;;;11.30;98.00;;;;;;5053211;28;20460;-66
2022/09/20 02:49:36;;;;;;;2.40;1.77;;;11.30;98.00;;;;;;5053431;28;20544;-66
2022/09/20 02:52:16;;;;;;;2.17;1.30;;;11.30;98.00;;;;;;5053156;28;20452;-66
2022/09/20 02:54:53;;;;;;;2.57;1.60;;;11.20;98.00;;;;;;5053185;28;20462;-66
2022/09/20 02:57:30;;;;;;;2.63;1.60;;;11.20;98.00;;;;;;5053052;28;20840;-66
2022/09/20 03:00:02;;;;;;;2.63;1.83;;;11.30;98.00;;;;;;5053072;28;20470;-66
2022/09/20 03:02:39;;;;;;;1.90;1.20;;;11.10;98.00;;;;;;5053017;28;20459;-66
2022/09/20 03:05:14;;;;;;;2.07;1.33;;;11.10;98.00;;;;;;5053144;28;20466;-66
2022/09/20 03:07:56;;;;;;;5.60;2.87;;;11.20;98.00;;;;;;5053034;28;21004;-66
2022/09/20 03:10:33;;;;;;;2.50;1.53;;;11.20;98.00;;;;;;5053028;28;20462;-66
2022/09/20 03:13:13;;;;;;;1.60;1.20;;;11.30;98.00;;;;;;5052862;28;20462;-66
2022/09/20 03:15:52;;;;;;;1.60;1.53;;;11.40;98.00;;;;;;5053079;28;20461;-66
2022/09/20 03:18:33;;;;;;;1.47;1.40;;;11.50;98.00;;;;;;5052751;28;20491;-66
2022/09/20 03:21:11;;;;;;;1.53;1.30;;;11.70;98.00;;;;;;5052789;28;20484;-66
2022/09/20 03:23:52;;;;;;;1.60;1.40;;;11.60;98.00;;;;;;5051893;28;20490;-66
2022/09/20 03:26:31;;;;;;;1.40;1.40;;;11.70;98.00;;;;;;5034424;28;20522;-66
2022/09/20 03:29:05;;;;;;;2.03;1.60;;;11.70;98.00;;;;;;5051969;28;20462;-66
2022/09/20 03:31:58;;;;;;;3.23;1.80;;;11.70;98.00;;;;;;5052532;28;20546;-66
2022/09/20 03:34:45;;;;;;;1.70;1.17;;;11.60;98.00;;;;;;5049931;28;20799;-66
2022/09/20 03:37:29;;;;;;;2.20;1.53;;;11.50;98.00;;;;;;5051792;28;20512;-66
2022/09/20 03:40:40;;;;;;;1.80;1.63;;;11.40;98.00;;;;;;5052029;28;20470;-66
2022/09/20 03:43:20;;;;;;;4.20;1.80;;;11.30;98.00;;;;;;5051874;28;20471;-66
2022/09/20 03:46:03;;;;;;;1.83;1.63;;;11.30;98.00;;;;;;5052337;28;20805;-66
2022/09/20 03:48:56;;;;;;;1.53;1.47;;;11.20;98.00;;;;;;5052128;28;21056;-66
2022/09/20 03:51:30;;;;;;;3.20;1.73;;;11.20;98.00;;;;;;5023967;28;20454;-66
2022/09/20 03:54:36;;;;;;;3.13;1.90;;;11.30;98.00;;;;;;5052084;28;20459;-66
2022/09/20 03:57:22;;;;;;;1.67;1.40;;;11.10;98.00;;;;;;5051956;28;20483;-67
2022/09/20 04:00:08;;;;;;;2.70;1.70;;;11.10;98.00;;;;;;5052020;28;20512;-66
2022/09/20 04:02:55;;;;;;;2.23;1.70;;;11.10;98.00;;;;;;5051959;28;20470;-66
2022/09/20 04:05:30;;;;;;;2.40;1.63;;;11.10;98.00;;;;;;5052186;28;20456;-66
2022/09/20 04:08:09;;;;;;;2.80;1.60;;;11.20;98.00;;;;;;5051878;28;20457;-66
2022/09/20 04:10:45;;;;;;;1.63;1.50;;;11.20;98.00;;;;;;5052059;28;20863;-66
2022/09/20 04:13:29;;;;;;;2.43;1.80;;;11.20;98.00;;;;;;5052016;28;20827;-66
2022/09/20 04:16:07;;;;;;;2.83;1.63;;;11.10;98.00;;;;;;5051929;28;20458;-66
2022/09/20 04:18:41;;;;;;;1.80;1.47;;;11.10;98.00;;;;;;5034948;28;21014;-66
2022/09/20 04:21:16;;;;;;;2.60;1.70;;;11.20;98.00;;;;;;5052111;28;20519;-66
2022/09/20 04:23:52;;;;;;;1.60;1.60;;;11.20;98.00;;;;;;5051910;28;20539;-66
2022/09/20 04:26:25;;;;;;;3.93;1.40;;;11.30;98.00;;;;;;5052161;28;20480;-66
2022/09/20 04:28:58;;;;;;;2.90;1.70;;;11.30;98.00;;;;;;5052174;28;20456;-66
2022/09/20 04:31:36;;;;;;;1.80;1.57;;;11.30;98.00;;;;;;5051681;28;20468;-66
2022/09/20 04:34:10;;;;;;;1.80;1.40;;;11.30;98.00;;;;;;5051810;28;20548;-66
2022/09/20 04:36:55;;;;;;;2.97;2.00;;;11.40;98.00;;;;;;5051507;28;20995;-66
2022/09/20 04:39:34;;;;;;;2.93;1.80;;;11.50;98.00;;;;;;5051758;28;20465;-66
2022/09/20 04:42:38;;;;;;;1.53;1.50;;;11.30;98.00;;;;;;5051682;28;20879;-66
2022/09/20 04:45:45;;;;;;;1.47;1.17;;;11.30;98.00;;;;;;5051682;28;20464;-66
2022/09/20 04:48:56;;;;;;;1.63;1.60;;;11.20;98.00;;;;;;5051549;28;20460;-66
2022/09/20 04:52:06;;;;;;;2.10;1.73;;;11.20;98.00;;;;;;5040059;28;20463;-66
2022/09/20 04:55:20;;;;;;;1.80;1.50;;;11.20;98.00;;;;;;5055551;28;20459;-66
2022/09/20 04:58:20;;;;;;;1.80;1.40;;;11.30;98.00;;;;;;5028283;28;20533;-66
2022/09/20 05:01:33;;;;;;;3.10;1.63;;;11.30;98.00;;;;;;5055404;28;20510;-66
2022/09/20 05:04:28;;;;;;;2.47;1.60;;;11.30;98.00;;;;;;5055378;28;20464;-66
2022/09/20 05:07:22;;;;;;;1.60;1.43;;;11.40;98.00;;;;;;5021569;28;20455;-66
2022/09/20 05:10:15;;;;;;;1.60;1.37;;;11.30;98.00;;;;;;5055360;28;20461;-66
2022/09/20 05:13:09;;;;;;;3.87;1.77;;;11.20;98.00;;;;;;5055190;28;20462;-66
2022/09/20 05:15:42;;;;;;;6.30;1.87;;;11.10;98.00;;;;;;5052645;28;20466;-66
2022/09/20 05:18:33;;;;;;;2.10;1.50;;;11.10;98.00;;;;;;5055198;28;20841;-66
2022/09/20 05:21:26;;;;;;;1.83;1.40;;;11.10;98.00;;;;;;5021958;28;20563;-66
2022/09/20 05:24:08;;;;;;;2.13;1.37;;;11.10;98.00;;;;;;5054865;28;20470;-66
2022/09/20 05:26:51;;;;;;;1.47;1.47;;;11.20;98.00;;;;;;5038642;28;20453;-66
2022/09/20 05:29:28;;;;;;;1.73;1.43;;;11.10;98.00;;;;;;5055150;28;20458;-66
2022/09/20 05:32:06;;;;;;;5.20;2.10;;;11.10;98.00;;;;;;5054566;28;20469;-66
2022/09/20 05:34:45;;;;;;;1.87;1.47;;;11.10;98.00;;;;;;5054854;28;20462;-66
2022/09/20 05:37:22;;;;;;;2.43;1.63;;;11.10;98.00;;;;;;5054603;28;20573;-66
2022/09/20 05:39:55;;;;;;;2.80;1.63;;;11.10;98.00;;;;;;5054590;28;20459;-66
2022/09/20 05:42:34;;;;;;;1.30;1.27;;;11.10;98.00;;;;;;5036710;28;20463;-66
2022/09/20 05:45:18;;;;;;;1.50;1.47;;;11.20;98.00;;;;;;5054857;28;20471;-66
2022/09/20 05:47:53;;;;;;;1.93;1.60;;;11.20;98.00;;;;;;5054307;28;20480;-66
2022/09/20 05:50:49;;;;;;;2.27;1.90;;;11.10;98.00;;;;;;5037334;28;20927;-66
2022/09/20 05:53:55;;;;;;;4.70;1.90;;;11.10;98.00;;;;;;5040617;28;20471;-61
2022/09/20 05:56:33;;;;;;;1.70;1.30;;;11.10;98.00;;;;;;5054372;28;20463;-62
2022/09/20 05:59:11;;;;;;;1.83;1.70;;;11.10;98.00;;;;;;5054417;28;20489;-62
2022/09/20 06:01:42;;;;;;;1.37;1.27;;;11.20;98.00;;;;;;5053206;28;20468;-62
2022/09/20 06:04:17;;;;;;;4.60;1.77;;;11.30;98.00;;;;;;5054275;28;21192;-62
2022/09/20 06:06:56;;;;;;;1.90;1.30;;;11.20;98.00;;;;;;5036908;28;20483;-62
2022/09/20 06:09:45;;;;;;;1.80;1.40;;;11.30;98.00;;;;;;5054303;28;20653;-62
2022/09/20 06:12:30;;;;;;;1.47;1.30;;;11.30;98.00;;;;;;5024319;28;20481;-62
2022/09/20 06:15:03;;;;;;;2.60;1.97;;;11.40;98.00;;;;;;5053838;28;20457;-62
2022/09/20 06:17:37;;;;;;;1.40;1.30;;;11.50;98.00;;;;;;5053944;28;21026;-61
2022/09/20 06:20:18;;;;;;;4.70;1.90;;;11.40;98.00;;;;;;5053971;28;20458;-61
2022/09/20 06:22:49;;;;;;;1.80;1.43;;;11.40;98.00;;;;;;5037218;28;20462;-62
2022/09/20 06:25:22;;;;;;;17.47;2.03;;;11.50;98.00;;;;;;5053975;28;21025;-62
2022/09/20 06:27:54;;;;;;;3.97;1.70;;;11.70;98.00;;;;;;5053768;28;20455;-62
2022/09/20 06:30:25;;;;;;;1.60;1.60;;;11.60;98.00;;;;;;5053656;28;20540;-62
2022/09/20 06:32:55;;;;;;;2.10;1.60;;;11.70;98.00;;;;;;5053420;28;20474;-62
2022/09/20 06:35:27;;;;;;;2.60;1.60;;;11.70;98.00;;;;;;5053546;28;20466;-62
2022/09/20 06:43:33;;;;;;;2.37;1.80;;;11.70;98.00;;;;;;5053489;28;20547;-62
2022/09/20 06:46:00;;;;;;;3.07;2.00;;;11.70;98.00;;;;;;5053342;28;20472;-62
2022/09/20 06:48:28;;;;;;;3.20;1.80;;;11.70;98.00;;;;;;5053431;28;20842;-62
2022/09/20 06:50:56;;;;;;;8.03;1.73;;;11.80;98.00;;;;;;5053316;28;20455;-62
2022/09/20 06:53:27;;;;;;;2.00;1.87;;;11.80;98.00;;;;;;5053254;28;20447;-62
2022/09/20 06:55:55;;;;;;;1.60;1.40;;;11.80;98.00;;;;;;5053287;28;20452;-62
2022/09/20 06:58:22;;;;;;;2.43;1.83;;;11.90;98.00;;;;;;5053087;28;20509;-62
2022/09/20 07:00:49;;;;;;;1.50;1.40;;;12.10;98.00;;;;;;5053136;28;20464;-62
2022/09/20 07:03:20;;;;;;;2.20;1.97;;;12.10;98.00;;;;;;5053191;28;20460;-62
2022/09/20 07:05:48;;;;;;;3.90;1.90;;;12.10;98.00;;;;;;5036039;28;20461;-62
2022/09/20 07:08:16;;;;;;;3.30;1.90;;;12.10;98.00;;;;;;5052932;28;20452;-62
2022/09/20 07:10:44;;;;;;;3.20;1.93;;;12.00;98.00;;;;;;5052820;28;20949;-62
2022/09/20 07:13:12;;;;;;;1.53;1.40;;;12.00;98.00;;;;;;5055667;28;20465;-62
2022/09/20 07:15:40;;;;;;;5.60;2.10;;;11.80;98.00;;;;;;5076744;28;20892;-62
2022/09/20 07:18:07;;;;;;;3.63;1.40;;;11.80;98.00;;;;;;5070134;28;20506;-61
2022/09/20 07:20:35;;;;;;;7.70;1.80;;;12.00;98.00;;;;;;5070052;28;20543;-61
2022/09/20 07:23:02;;;;;;;1.70;1.60;;;12.10;98.00;;;;;;5070171;28;20487;-61
2022/09/20 07:25:30;;;;;;;2.60;1.77;;;12.20;98.00;;;;;;5070065;28;20939;-62
2022/09/20 07:27:59;;;;;;;2.60;2.03;;;12.30;98.00;;;;;;5051870;28;20836;-62
2022/09/20 07:30:26;;;;;;;2.00;1.50;;;12.10;98.00;;;;;;5069926;28;21027;-62
2022/09/20 07:32:53;;;;;;;2.40;1.63;;;12.00;98.00;;;;;;5069684;28;20458;-61
2022/09/20 07:35:20;;;;;;;2.33;2.03;;;12.10;98.00;;;;;;5069841;28;20468;-62
2022/09/20 07:37:47;;;;;;;2.90;1.73;;;12.10;98.00;;;;;;5069566;28;20528;-62
2022/09/20 07:40:15;;;;;;;2.33;2.00;;;12.00;98.00;;;;;;5069603;28;20462;-62
2022/09/20 07:42:44;;;;;;;1.87;1.50;;;12.10;98.00;;;;;;5069525;28;20464;-62
2022/09/20 07:45:12;;;;;;;2.50;1.70;;;12.10;98.00;;;;;;5069500;28;20454;-62
2022/09/20 07:47:40;;;;;;;2.00;1.80;;;12.20;98.00;;;;;;5069468;28;20475;-62
2022/09/20 07:50:10;;;;;;;1.60;1.47;;;12.20;98.00;;;;;;5067315;28;20928;-62
2022/09/20 07:52:37;;;;;;;1.73;1.53;;;12.30;98.00;;;;;;5069453;28;20469;-61
2022/09/20 07:55:05;;;;;;;1.50;1.47;;;12.30;98.00;;;;;;5069486;28;20502;-62
2022/09/20 07:57:36;;;;;;;2.50;1.83;;;12.40;98.00;;;;;;5069442;28;20802;-62
2022/09/20 08:00:05;;;;;;;2.40;1.73;;;12.40;98.00;;;;;;5069437;28;20457;-62
2022/09/20 08:02:34;;;;;;;2.63;1.80;;;12.60;98.00;;;;;;5069477;28;20974;-62
2022/09/20 08:05:01;;;;;;;2.43;1.90;;;12.80;98.00;;;;;;5069608;28;20464;-62
2022/09/20 08:07:29;;;;;;;3.60;1.90;;;13.00;98.00;;;;;;5069561;28;20827;-62
2022/09/20 08:09:56;;;;;;;3.10;1.70;;;13.00;98.00;;;;;;5069544;28;20473;-62
2022/09/20 08:12:23;;;;;;;5.83;1.73;;;12.80;98.00;;;;;;5069416;28;20463;-62
2022/09/20 08:14:51;;;;;;;2.00;1.60;;;12.80;98.00;;;;;;5068107;28;20452;-62
2022/09/20 08:17:18;;;;;;;1.90;1.83;;;12.60;98.00;;;;;;5069196;28;20517;-62
2022/09/20 08:19:47;;;;;;;2.90;1.63;;;12.60;98.00;;;;;;5069509;28;20491;-62
2022/09/20 08:22:14;;;;;;;10.43;1.90;;;12.80;98.00;;;;;;5071667;28;20470;-62
2022/09/20 08:24:43;;;;;;;2.43;1.73;;;12.80;98.00;;;;;;5071124;28;20466;-62
2022/09/20 08:27:16;;;;;;;2.60;1.73;;;13.20;98.00;;;;;;5071065;28;20548;-61
2022/09/20 08:29:43;;;;;;;1.93;1.30;;;13.20;98.00;;;;;;5071180;28;20445;-62
2022/09/20 08:32:10;;;;;;;2.47;1.73;;;13.30;98.00;;;;;;5070931;28;20461;-62
2022/09/20 08:34:38;;;;;;;3.07;2.10;;;13.30;98.00;;;;;;5071083;28;20458;-62
2022/09/20 08:37:07;;;;;;;8.83;1.90;;;13.40;98.00;;;;;;5070862;28;20457;-62
2022/09/20 08:39:34;;;;;;;2.00;1.80;;;13.50;98.00;;;;;;5071063;28;20487;-62
2022/09/20 08:42:11;;;;;;;1.80;1.53;;;13.70;98.00;;;;;;5053340;28;20937;-62
2022/09/20 08:44:49;;;;;;;1.80;1.60;;;13.80;98.00;;;;;;5053539;28;20459;-62
2022/09/20 08:47:21;;;;;;;2.50;1.87;;;14.00;98.00;;;;;;5071083;28;20456;-62
2022/09/20 08:49:49;;;;;;;3.20;1.77;;;14.20;98.00;;;;;;5070840;28;20453;-62
2022/09/20 08:52:19;;;;;;;1.60;1.30;;;14.20;98.00;;;;;;5070825;28;20951;-62
2022/09/20 08:54:47;;;;;;;3.40;1.93;;;14.20;98.00;;;;;;5071002;28;20779;-62
2022/09/20 08:57:16;;;;;;;3.10;1.73;;;14.30;98.00;;;;;;5070835;28;20447;-61
2022/09/20 08:59:44;;;;;;;1.87;1.53;;;14.40;98.00;;;;;;5070079;28;20493;-62
2022/09/20 09:02:16;;;;;;;1.57;1.50;;;14.40;98.00;;;;;;5070730;28;20458;-62
2022/09/20 09:04:44;;;;;;;3.23;1.87;;;14.40;98.00;;;;;;5070722;28;20553;-62
2022/09/20 09:07:14;;;;;;;1.47;1.13;;;14.50;98.00;;;;;;5070895;28;20489;-62
2022/09/20 09:09:45;;;;;;;1.80;1.70;;;14.70;98.00;;;;;;5053329;28;20458;-62
2022/09/20 09:12:20;;;;;;;3.23;2.10;;;14.90;98.00;;;;;;5070627;28;20483;-62
2022/09/20 09:14:51;;;;;;;1.90;1.50;;;15.00;98.00;;;;;;5070713;28;20444;-62
2022/09/20 09:17:20;;;;;;;4.30;1.80;;;15.00;98.00;;;;;;5070614;28;20467;-62
2022/09/20 09:19:52;;;;;;;1.90;1.53;;;15.20;98.00;;;;;;5070675;28;20478;-62
2022/09/20 09:22:22;;;;;;;2.60;1.60;;;15.20;98.00;;;;;;5070678;28;20458;-62
2022/09/20 09:25:23;;;;;;;3.77;1.93;;;15.30;98.00;;;;;;5070807;28;20514;-62
2022/09/20 09:27:53;;;;;;;2.20;1.43;;;15.30;98.00;;;;;;5070563;28;20494;-62
2022/09/20 09:30:26;;;;;;;1.40;1.20;;;15.30;98.00;;;;;;5070844;28;20458;-62
2022/09/20 09:32:55;;;;;;;4.00;1.60;;;15.20;98.00;;;;;;5070388;28;21055;-62
2022/09/20 09:35:26;;;;;;;2.23;1.57;;;15.10;98.00;;;;;;5070610;28;20512;-62
2022/09/20 09:37:58;;;;;;;1.97;1.40;;;15.00;98.00;;;;;;5073841;28;20456;-62
2022/09/20 09:40:28;;;;;;;2.67;1.50;;;14.90;98.00;;;;;;5057081;28;20876;-62
2022/09/20 09:42:57;;;;;;;3.20;1.77;;;14.90;98.00;;;;;;5073950;28;20820;-62
2022/09/20 09:45:29;;;;;;;1.50;1.50;;;14.90;98.00;;;;;;5074070;28;20461;-62
2022/09/20 09:47:56;;;;;;;1.50;1.37;;;14.90;98.00;;;;;;5073715;28;20489;-62
2022/09/20 09:50:27;;;;;;;1.87;1.30;;;14.90;98.00;;;;;;5074017;28;20939;-62
2022/09/20 09:53:01;;;;;;;1.50;1.30;;;14.70;98.00;;;;;;5073623;28;20457;-62
2022/09/20 09:55:47;;;;;;;1.30;1.20;;;14.80;98.00;;;;;;5073921;28;20457;-62
2022/09/20 09:58:26;;;;;;;1.80;1.43;;;14.90;98.00;;;;;;5073602;28;20458;-62
2022/09/20 10:00:54;;;;;;;1.93;1.37;;;14.90;98.00;;;;;;5073665;28;20461;-62
2022/09/20 10:03:39;;;;;;;2.00;1.50;;;15.10;98.00;;;;;;5073572;28;20521;-62
2022/09/20 10:06:18;;;;;;;1.77;1.70;;;15.30;98.00;;;;;;5073538;28;20458;-62
2022/09/20 10:08:59;;;;;;;2.63;1.53;;;15.30;98.00;;;;;;5073357;28;20954;-62
2022/09/20 10:11:36;;;;;;;3.67;1.30;;;15.40;98.00;;;;;;5073628;28;20457;-62
2022/09/20 10:14:14;;;;;;;1.30;1.10;;;15.70;98.00;;;;;;5073344;28;20533;-62
2022/09/20 10:17:00;;;;;;;1.77;1.60;;;15.90;98.00;;;;;;5073692;28;20863;-62
2022/09/20 10:19:46;;;;;;;1.30;1.30;;;16.00;98.00;;;;;;5073211;28;20492;-62
2022/09/20 10:22:23;;;;;;;1.90;1.70;;;16.40;98.00;;;;;;5073648;28;20466;-62
2022/09/20 10:25:00;;;;;;;1.47;1.43;;;16.60;98.00;;;;;;5073596;28;20457;-62
2022/09/20 10:27:39;;;;;;;1.30;1.20;;;16.80;98.00;;;;;;5073570;28;20455;-62
2022/09/20 10:30:12;;;;;;;1.83;1.30;;;17.10;98.00;;;;;;5073020;28;20450;-62
2022/09/20 10:33:00;;;;;;;1.50;1.27;;;16.70;98.00;;;;;;5073217;28;20498;-62
2022/09/20 10:35:37;;;;;;;1.40;1.33;;;16.30;98.00;;;;;;5073104;28;20497;-62
2022/09/20 10:38:18;;;;;;;1.30;1.30;;;16.10;98.00;;;;;;5072834;28;20734;-62
2022/09/20 10:44:01;;;;;;;1.47;1.27;;;15.60;98.00;;;;;;5072935;28;20923;-62
2022/09/20 10:46:36;;;;;;;3.60;1.50;;;15.50;98.00;;;;;;5072388;28;20978;-61
2022/09/20 10:49:13;;;;;;;1.30;1.30;;;15.40;98.00;;;;;;5072675;28;20458;-62
2022/09/20 10:51:53;;;;;;;9.80;1.40;;;15.60;98.00;;;;;;5072715;28;20466;-62
2022/09/20 10:54:34;;;;;;;3.20;1.50;;;15.60;98.00;;;;;;5055039;28;20880;-62
2022/09/20 10:57:17;;;;;;;2.23;1.30;;;16.10;98.00;;;;;;5072581;28;20503;-62
2022/09/20 10:59:52;;;;;;;1.53;1.50;;;16.40;98.00;;;;;;5072148;28;20486;-62
2022/09/20 11:02:39;;;;;;;1.47;1.33;;;16.60;98.00;;;;;;5072042;28;20484;-62
2022/09/20 11:05:29;;;;;;;2.03;1.40;;;16.50;95.50;;;;;;5072288;28;20461;-63
2022/09/20 11:08:08;;;;;;;3.63;1.50;;;16.50;96.10;;;;;;5064182;28;20462;-62
2022/09/20 11:10:39;;;;;;;1.70;1.30;;;16.30;94.60;;;;;;5072594;28;20461;-62
2022/09/20 11:13:20;;;;;;;1.60;1.37;;;16.30;93.50;;;;;;5072742;28;20515;-62
2022/09/20 11:15:54;;;;;;;2.10;1.33;;;16.20;94.00;;;;;;5072712;28;20526;-61
2022/09/20 11:18:27;;;;;;;1.20;1.00;;;16.20;94.80;;;;;;5072398;28;20467;-61
2022/09/20 11:21:02;;;;;;;1.20;1.10;;;16.30;96.80;;;;;;5072279;28;20927;-61
2022/09/20 11:23:37;;;;;;;2.27;1.70;;;16.70;94.80;;;;;;5072134;28;20458;-62
2022/09/20 11:26:11;;;;;;;1.73;1.40;;;16.80;91.60;;;;;;5053859;28;20466;-61
2022/09/20 11:28:42;;;;;;;11.07;2.13;;;16.80;93.10;;;;;;5071802;28;20459;-61
2022/09/20 11:31:17;;;;;;;2.43;1.77;;;16.80;93.60;;;;;;5071768;28;20817;-61
2022/09/20 11:33:51;;;;;;;1.20;1.10;;;16.70;92.40;;;;;;5071592;28;20974;-61
2022/09/20 11:36:23;;;;;;;2.93;1.40;;;16.50;93.10;;;;;;5054847;28;20456;-62
2022/09/20 11:38:56;;;;;;;2.93;1.60;;;16.50;95.00;;;;;;5071144;28;20460;-62
2022/09/20 11:41:27;;;;;;;1.87;1.50;;;16.60;95.80;;;;;;5071903;28;20515;-62
2022/09/20 11:43:59;;;;;;;1.43;1.20;;;16.50;93.70;;;;;;5072068;28;20479;-62
2022/09/20 11:46:31;;;;;;;2.20;1.30;;;16.30;94.90;;;;;;5072267;28;20462;-62
2022/09/20 11:49:02;;;;;;;5.33;2.07;;;16.30;94.10;;;;;;5054279;28;20459;-62
2022/09/20 11:52:19;;;;;;;2.00;1.37;;;16.90;95.20;;;;;;5072079;28;20457;-62
2022/09/20 11:55:15;;;;;;;1.93;1.23;;;17.70;96.30;;;;;;5072140;28;20512;-62
2022/09/20 11:57:42;;;;;;;2.63;1.40;;;18.90;91.60;;;;;;5071961;28;20460;-62
2022/09/20 12:00:10;;;;;;;1.73;1.50;;;19.10;89.00;;;;;;5071664;28;20494;-62
2022/09/20 12:02:44;;;;;;;1.70;1.37;;;19.70;89.90;;;;;;5072062;28;20464;-61
2022/09/20 12:05:27;;;;;;;1.40;1.27;;;19.90;87.20;;;;;;5072457;28;20460;-62
2022/09/20 12:07:58;;;;;;;1.80;1.40;;;19.90;85.00;;;;;;5071960;28;20555;-62
2022/09/20 12:10:29;;;;;;;1.60;1.30;;;19.90;86.10;;;;;;5071848;28;20449;-62
2022/09/20 12:12:59;;;;;;;2.40;1.50;;;20.00;87.40;;;;;;5072144;28;20969;-62
2022/09/20 12:15:30;;;;;;;3.10;1.60;;;19.80;84.50;;;;;;5072223;28;20544;-63
2022/09/20 12:18:22;;;;;;;2.10;1.30;;;19.50;81.70;;;;;;5054460;28;20452;-63
2022/09/20 12:21:21;;;;;;;2.50;1.40;;;19.50;83.80;;;;;;5071904;28;20481;-62
2022/09/20 12:24:17;;;;;;;1.30;1.30;;;19.90;85.10;;;;;;5071589;28;20456;-62
2022/09/20 12:26:54;;;;;;;1.70;1.33;;;20.20;86.60;;;;;;5072030;28;20552;-62
2022/09/20 12:30:03;;;;;;;4.43;1.60;;;19.90;85.80;;;;;;5071662;28;20452;-62
2022/09/20 12:32:55;;;;;;;2.10;1.43;;;19.30;87.70;;;;;;5071504;28;20955;-62
2022/09/20 12:36:17;;;;;;;1.50;1.20;;;18.80;90.40;;;;;;5071589;28;20504;-62
2022/09/20 12:39:02;;;;;;;2.70;1.33;;;18.30;89.70;;;;;;5066329;28;20476;-63
2022/09/20 12:41:46;;;;;;;1.70;1.33;;;17.90;91.90;;;;;;5071613;28;20462;-62
2022/09/20 12:44:26;;;;;;;2.07;1.53;;;17.60;91.00;;;;;;5071276;28;20467;-62
2022/09/20 12:46:56;;;;;;;1.67;1.40;;;17.40;92.20;;;;;;5074158;28;20469;-62
2022/09/20 12:52:56;;;;;;;2.17;1.40;;;16.90;91.40;;;;;;5069062;28;20581;-63
2022/09/20 12:55:38;;;;;;;1.40;1.30;;;17.50;93.60;;;;;;5069049;28;20539;-62
2022/09/20 12:58:33;;;;;;;2.13;1.37;;;18.20;90.60;;;;;;5068597;28;20467;-63
2022/09/20 13:01:32;;;;;;;4.80;1.50;;;18.70;90.40;;;;;;5071176;28;20484;-61
2022/09/20 13:04:37;;;;;;;4.70;1.43;;;18.80;90.00;;;;;;5071174;28;20461;-62
2022/09/20 13:07:43;;;;;;;2.07;1.40;;;18.70;90.50;;;;;;5071360;28;20457;-63
2022/09/20 13:10:32;;;;;;;1.60;1.40;;;18.50;90.40;;;;;;5072782;28;20802;-63
2022/09/20 13:13:12;;;;;;;12.37;2.33;;;18.00;91.70;;;;;;5075346;28;20445;-63
2022/09/20 13:15:40;;;;;;;4.73;1.60;;;17.90;90.90;;;;;;5057442;28;20470;-63
2022/09/20 13:18:14;;;;;;;2.43;1.50;;;17.70;92.80;;;;;;5075514;28;20784;-63
2022/09/20 13:20:43;;;;;;;2.70;1.50;;;17.50;92.00;;;;;;5075273;28;20579;-62
2022/09/20 13:23:19;;;;;;;3.63;1.83;;;17.20;92.60;;;;;;5074805;28;20517;-63
2022/09/20 13:25:48;;;;;;;2.03;1.30;;;17.00;92.10;;;;;;5074785;28;20467;-63
2022/09/20 13:28:33;;;;;;;1.80;1.50;;;16.80;92.50;;;;;;5074934;28;20468;-63
2022/09/20 13:31:26;;;;;;;1.60;1.30;;;16.60;95.90;;;;;;5074663;28;20472;-63
2022/09/20 13:33:53;;;;;;;1.43;1.20;;;16.50;96.90;;;;;;5074587;28;20466;-62
2022/09/20 13:36:27;;;;;;;2.23;1.67;;;16.40;98.00;;;;;;5074728;28;20458;-63
2022/09/20 13:38:57;;;;;;;1.50;1.30;;;16.40;98.00;;;;;;5074575;28;20462;-63
2022/09/20 13:41:31;;;;;;;2.70;1.67;;;16.40;98.00;;;;;;5074778;28;20479;-63
2022/09/20 13:43:59;;;;;;;2.80;1.50;;;16.30;98.00;;;;;;5074510;28;20946;-63
2022/09/20 13:46:30;;;;;;;1.77;1.33;;;16.30;98.00;;;;;;5074785;28;20520;-63
2022/09/20 13:49:12;;;;;;;1.93;1.37;;;16.40;98.00;;;;;;5074643;28;20504;-62
2022/09/20 13:51:40;;;;;;;1.60;1.43;;;16.50;98.00;;;;;;5074472;28;20470;-62